createdAt,value
2019-01-24T00:00:57.589Z,72.94
2019-01-24T00:03:25.785Z,72.78
2019-01-24T00:05:53.998Z,72.54
2019-01-24T00:08:22.199Z,72.79
2019-01-24T00:10:50.401Z,73.01
2019-01-24T00:13:18.591Z,73.14
2019-01-24T00:15:46.799Z,73.16
2019-01-24T00:18:15.092Z,73.18
2019-01-24T00:20:43.288Z,73.45
2019-01-24T00:23:11.481Z,73.42
2019-01-24T00:25:39.742Z,73.30
2019-01-24T00:28:07.881Z,72.98
2019-01-24T00:30:36.084Z,73.11
2019-01-24T00:33:04.281Z,72.79
2019-01-24T00:35:32.489Z,72.85
2019-01-24T00:38:00.684Z,72.94
2019-01-24T00:40:28.900Z,72.84
2019-01-24T00:42:57.089Z,73.00
2019-01-24T00:45:25.303Z,72.78
2019-01-24T00:47:53.497Z,72.70
2019-01-24T00:50:21.701Z,72.85
2019-01-24T00:52:49.891Z,72.73
2019-01-24T00:55:18.098Z,72.72
2019-01-24T00:57:46.294Z,72.84
2019-01-24T01:00:54.604Z,72.70
2019-01-24T01:03:22.800Z,72.82
2019-01-24T01:06:10.382Z,72.72
2019-01-24T01:08:38.576Z,72.69
2019-01-24T01:11:06.788Z,72.76
2019-01-24T01:13:54.358Z,72.90
2019-01-24T01:16:22.561Z,72.92
2019-01-24T01:18:50.762Z,72.93
2019-01-24T01:21:18.975Z,73.02
2019-01-24T01:23:47.163Z,72.92
2019-01-24T01:26:15.376Z,72.73
2019-01-24T01:29:03.001Z,72.54
2019-01-24T01:31:31.209Z,72.82
2019-01-24T01:33:59.403Z,72.74
2019-01-24T01:36:27.617Z,72.62
2019-01-24T01:38:55.814Z,72.18
2019-01-24T01:41:24.020Z,71.90
2019-01-24T01:43:52.217Z,71.97
2019-01-24T01:46:20.423Z,72.26
2019-01-24T01:48:48.630Z,72.33
2019-01-24T01:51:16.837Z,72.46
2019-01-24T01:53:45.038Z,72.28
2019-01-24T01:56:13.247Z,72.28
2019-01-24T01:58:41.446Z,72.05
2019-01-24T02:01:09.649Z,72.17
2019-01-24T02:03:37.846Z,72.20
2019-01-24T02:06:06.053Z,71.85
2019-01-24T02:08:34.252Z,71.75
2019-01-24T02:11:02.468Z,71.95
2019-01-24T02:13:30.666Z,71.64
2019-01-24T02:15:58.859Z,71.81
2019-01-24T02:18:27.068Z,71.72
2019-01-24T02:20:55.267Z,71.56
2019-01-24T02:23:23.481Z,71.79
2019-01-24T02:25:51.673Z,71.62
2019-01-24T02:28:19.879Z,71.73
2019-01-24T02:30:48.072Z,71.61
2019-01-24T02:33:16.281Z,71.49
2019-01-24T02:35:44.467Z,71.40
2019-01-24T02:38:12.677Z,71.02
2019-01-24T02:40:40.871Z,71.19
2019-01-24T02:43:09.084Z,71.07
2019-01-24T02:45:37.273Z,70.83
2019-01-24T02:48:05.553Z,70.85
2019-01-24T02:50:33.749Z,70.60
2019-01-24T02:53:01.954Z,70.49
2019-01-24T02:58:19.036Z,70.64
2019-01-24T03:00:47.234Z,70.20
2019-01-24T03:03:15.449Z,70.35
2019-01-24T03:05:43.640Z,70.18
2019-01-24T03:08:11.853Z,70.21
2019-01-24T03:10:40.042Z,70.00
2019-01-24T03:13:08.248Z,70.25
2019-01-24T03:15:36.444Z,70.18
2019-01-24T03:18:04.655Z,70.11
2019-01-24T03:20:32.855Z,70.31
2019-01-24T03:23:01.132Z,70.21
2019-01-24T03:25:29.326Z,69.97
2019-01-24T03:28:37.641Z,70.39
2019-01-24T03:31:05.841Z,69.56
2019-01-24T03:33:34.053Z,69.75
2019-01-24T03:36:02.248Z,69.83
2019-01-24T03:38:30.455Z,69.61
2019-01-24T03:40:58.652Z,69.47
2019-01-24T03:43:26.860Z,69.69
2019-01-24T03:45:55.057Z,69.20
2019-01-24T03:48:23.284Z,69.42
2019-01-24T03:50:51.468Z,68.53
2019-01-24T03:53:19.678Z,68.18
2019-01-24T03:55:47.867Z,68.69
2019-01-24T03:58:16.072Z,69.00
2019-01-24T04:00:44.266Z,69.16
2019-01-24T04:03:12.473Z,68.70
2019-01-24T04:05:40.669Z,68.69
2019-01-24T04:08:08.872Z,68.49
2019-01-24T04:10:37.117Z,68.45
2019-01-24T04:13:05.283Z,68.28
2019-01-24T04:15:33.477Z,68.36
2019-01-24T04:18:01.686Z,68.42
2019-01-24T04:20:29.883Z,68.90
2019-01-24T04:22:58.100Z,68.94
2019-01-24T04:25:26.330Z,68.77
2019-01-24T04:27:54.526Z,68.48
2019-01-24T04:31:02.842Z,68.22
2019-01-24T04:33:31.044Z,68.09
2019-01-24T04:35:59.242Z,68.14
2019-01-24T04:38:27.454Z,68.03
2019-01-24T04:44:09.133Z,67.98
2019-01-24T04:46:37.324Z,67.91
2019-01-24T04:49:05.522Z,67.35
2019-01-24T04:51:33.704Z,67.73
2019-01-24T04:54:21.346Z,68.03
2019-01-24T04:56:49.531Z,68.12
2019-01-24T04:59:37.234Z,67.90
2019-01-24T05:02:05.423Z,67.95
2019-01-24T05:04:33.637Z,67.74
2019-01-24T05:07:01.827Z,67.76
2019-01-24T05:09:30.037Z,67.75
2019-01-24T05:11:58.226Z,67.54
2019-01-24T05:14:26.427Z,67.56
2019-01-24T05:16:54.628Z,67.30
2019-01-24T05:19:22.840Z,67.16
2019-01-24T05:21:51.024Z,67.05
2019-01-24T05:24:19.231Z,66.04
2019-01-24T05:26:47.436Z,66.34
2019-01-24T05:29:35.071Z,66.33
2019-01-24T05:32:03.264Z,66.33
2019-01-24T05:34:31.460Z,66.06
2019-01-24T05:36:59.648Z,66.19
2019-01-24T05:39:27.844Z,66.16
2019-01-24T05:41:56.048Z,65.97
2019-01-24T05:44:24.251Z,66.12
2019-01-24T05:46:52.446Z,65.71
2019-01-24T05:49:20.653Z,65.64
2019-01-24T05:51:48.849Z,65.53
2019-01-24T05:54:17.073Z,65.58
2019-01-24T05:56:45.263Z,65.04
2019-01-24T05:59:32.897Z,65.21
2019-01-24T06:02:01.157Z,65.21
2019-01-24T06:04:29.361Z,65.22
2019-01-24T06:07:16.993Z,65.35
2019-01-24T06:09:45.193Z,65.35
2019-01-24T06:12:13.402Z,64.93
2019-01-24T06:14:41.591Z,64.97
2019-01-24T06:17:09.779Z,64.27
2019-01-24T06:19:37.973Z,64.53
2019-01-24T06:22:06.179Z,64.85
2019-01-24T06:24:34.373Z,64.53
2019-01-24T06:27:02.581Z,64.20
2019-01-24T06:29:30.780Z,64.56
2019-01-24T06:31:58.982Z,64.00
2019-01-24T06:34:27.194Z,64.47
2019-01-24T06:36:55.392Z,64.58
2019-01-24T06:39:23.584Z,64.44
2019-01-24T06:41:51.797Z,64.35
2019-01-24T06:44:19.994Z,64.49
2019-01-24T06:47:07.313Z,64.43
2019-01-24T06:49:35.498Z,64.81
2019-01-24T06:52:03.714Z,64.75
2019-01-24T06:54:31.907Z,64.96
2019-01-24T06:57:00.111Z,65.25
2019-01-24T06:59:47.422Z,65.22
2019-01-24T07:02:15.628Z,65.15
2019-01-24T07:04:43.823Z,65.33
2019-01-24T07:07:31.473Z,65.16
2019-01-24T07:09:59.662Z,65.28
2019-01-24T07:12:47.312Z,65.40
2019-01-24T07:15:28.181Z,65.40
2019-01-24T07:17:56.399Z,65.51
2019-01-24T07:20:24.595Z,65.31
2019-01-24T07:22:52.802Z,65.34
2019-01-24T07:28:35.107Z,65.43
2019-01-24T07:31:03.306Z,65.54
2019-01-24T07:33:31.516Z,65.59
2019-01-24T07:36:02.286Z,65.57
2019-01-24T07:38:29.670Z,65.61
2019-01-24T07:40:57.875Z,65.42
2019-01-24T07:43:26.091Z,65.55
2019-01-24T07:45:54.287Z,65.62
2019-01-24T07:48:22.496Z,65.58
2019-01-24T07:50:50.696Z,65.59
2019-01-24T07:53:18.904Z,65.75
2019-01-24T07:55:47.097Z,65.78
2019-01-24T07:58:15.309Z,65.43
2019-01-24T08:00:43.504Z,65.58
2019-01-24T08:03:11.715Z,65.64
2019-01-24T08:05:39.914Z,65.42
2019-01-24T08:08:08.119Z,65.40
2019-01-24T08:10:36.313Z,65.28
2019-01-24T08:13:23.954Z,64.79
2019-01-24T08:15:52.144Z,64.79
2019-01-24T08:18:20.360Z,65.12
2019-01-24T08:20:48.556Z,65.07
2019-01-24T08:23:16.753Z,65.08
2019-01-24T08:26:25.070Z,65.29
2019-01-24T08:28:53.282Z,65.14
2019-01-24T08:34:08.734Z,64.58
2019-01-24T08:36:36.933Z,64.52
2019-01-24T08:39:45.256Z,64.15
2019-01-24T08:42:13.452Z,63.76
2019-01-24T08:44:41.655Z,64.03
2019-01-24T08:47:09.854Z,64.33
2019-01-24T08:49:38.096Z,63.92
2019-01-24T08:52:06.290Z,64.10
2019-01-24T08:54:34.486Z,64.42
2019-01-24T08:57:02.698Z,64.43
2019-01-24T09:00:11.017Z,64.17
2019-01-24T09:02:39.206Z,63.84
2019-01-24T09:05:47.533Z,64.33
2019-01-24T09:08:15.724Z,64.37
2019-01-24T09:10:43.937Z,64.59
2019-01-24T09:13:12.202Z,64.67
2019-01-24T09:15:40.415Z,65.00
2019-01-24T09:18:28.045Z,64.66
2019-01-24T09:20:56.945Z,64.66
2019-01-24T09:23:26.192Z,64.94
2019-01-24T09:25:54.401Z,64.91
2019-01-24T09:28:22.593Z,65.00
2019-01-24T09:30:50.805Z,64.81
2019-01-24T09:36:06.279Z,64.97
2019-01-24T09:38:34.476Z,64.83
2019-01-24T09:41:02.688Z,64.05
2019-01-24T09:43:30.885Z,63.66
2019-01-24T09:45:59.101Z,63.57
2019-01-24T09:48:27.299Z,63.91
2019-01-24T09:50:55.509Z,63.50
2019-01-24T09:53:23.708Z,63.06
2019-01-24T09:55:51.919Z,62.62
2019-01-24T09:58:20.113Z,63.13
2019-01-24T10:00:48.309Z,62.97
2019-01-24T10:03:16.517Z,63.14
2019-01-24T10:05:44.713Z,63.07
2019-01-24T10:08:12.922Z,63.22
2019-01-24T10:10:41.123Z,63.04
2019-01-24T10:13:09.333Z,62.85
2019-01-24T10:15:37.534Z,63.01
2019-01-24T10:18:45.848Z,62.87
2019-01-24T10:21:33.521Z,62.73
2019-01-24T10:24:01.681Z,62.73
2019-01-24T10:26:29.880Z,63.01
2019-01-24T10:28:58.090Z,62.58
2019-01-24T10:31:46.496Z,63.08
2019-01-24T10:34:15.738Z,63.08
2019-01-24T10:36:44.008Z,62.36
2019-01-24T10:39:12.221Z,62.66
2019-01-24T10:41:40.417Z,62.60
2019-01-24T10:44:08.627Z,62.87
2019-01-24T10:46:36.824Z,62.84
2019-01-24T10:49:05.036Z,63.39
2019-01-24T10:51:33.233Z,62.95
2019-01-24T10:54:01.441Z,62.79
2019-01-24T10:56:29.638Z,62.08
2019-01-24T10:58:57.856Z,62.33
2019-01-24T11:01:26.059Z,62.72
2019-01-24T11:03:54.278Z,62.34
2019-01-24T11:06:22.476Z,62.34
2019-01-24T11:08:50.681Z,62.14
2019-01-24T11:11:18.879Z,62.30
2019-01-24T11:13:47.089Z,62.26
2019-01-24T11:16:15.284Z,62.40
2019-01-24T11:18:43.516Z,61.83
2019-01-24T11:21:11.712Z,61.59
2019-01-24T11:23:39.912Z,61.79
2019-01-24T11:26:08.143Z,62.09
2019-01-24T11:28:36.335Z,62.14
2019-01-24T11:31:04.557Z,61.68
2019-01-24T11:33:32.768Z,61.93
2019-01-24T11:36:00.984Z,61.74
2019-01-24T11:38:29.185Z,61.64
2019-01-24T11:40:57.416Z,61.85
2019-01-24T11:43:25.612Z,61.94
2019-01-24T11:45:53.822Z,61.96
2019-01-24T11:48:22.020Z,61.90
2019-01-24T11:50:51.167Z,62.18
2019-01-24T11:53:20.150Z,61.67
2019-01-24T11:55:48.365Z,61.98
2019-01-24T11:58:16.568Z,61.56
2019-01-24T12:03:23.906Z,61.55
2019-01-24T12:05:52.127Z,61.61
2019-01-24T12:08:20.327Z,61.82
2019-01-24T12:10:48.542Z,61.49
2019-01-24T12:13:16.745Z,60.86
2019-01-24T12:15:52.351Z,60.69
2019-01-24T12:18:20.549Z,60.81
2019-01-24T12:20:48.769Z,61.18
2019-01-24T12:23:16.964Z,61.41
2019-01-24T12:25:45.169Z,61.26
2019-01-24T12:28:13.362Z,61.10
2019-01-24T12:30:41.587Z,61.41
2019-01-24T12:33:09.779Z,61.28
2019-01-24T12:35:37.992Z,61.29
2019-01-24T12:38:06.187Z,61.17
2019-01-24T12:40:34.412Z,60.84
2019-01-24T12:43:02.606Z,60.46
2019-01-24T12:46:10.921Z,60.88
2019-01-24T12:48:39.184Z,61.16
2019-01-24T12:51:07.388Z,60.80
2019-01-24T12:53:35.588Z,60.07
2019-01-24T12:56:03.797Z,59.66
2019-01-24T12:58:31.989Z,60.13
2019-01-24T13:01:00.207Z,60.33
2019-01-24T13:03:28.400Z,60.25
2019-01-24T13:05:56.592Z,60.21
2019-01-24T13:08:24.807Z,60.12
2019-01-24T13:10:53.005Z,60.48
2019-01-24T13:13:21.208Z,59.98
2019-01-24T13:15:49.403Z,60.07
2019-01-24T13:18:17.696Z,60.34
2019-01-24T13:20:45.911Z,60.39
2019-01-24T13:23:14.108Z,58.98
2019-01-24T13:25:42.305Z,59.82
2019-01-24T13:28:10.529Z,59.93
2019-01-24T13:30:38.725Z,59.09
2019-01-24T13:33:06.930Z,59.72
2019-01-24T13:35:35.124Z,59.98
2019-01-24T13:38:03.340Z,59.72
2019-01-24T13:43:45.476Z,59.75
2019-01-24T13:46:13.668Z,59.36
2019-01-24T13:48:41.883Z,59.17
2019-01-24T13:51:10.079Z,58.67
2019-01-24T13:53:57.708Z,58.73
2019-01-24T13:56:25.916Z,58.72
2019-01-24T13:58:54.129Z,59.13
2019-01-24T14:01:22.326Z,59.09
2019-01-24T14:04:30.642Z,59.06
2019-01-24T14:06:58.829Z,59.12
2019-01-24T14:09:27.050Z,59.25
2019-01-24T14:11:55.238Z,58.59
2019-01-24T14:14:23.465Z,58.75
2019-01-24T14:16:51.670Z,58.79
2019-01-24T14:19:19.896Z,59.21
2019-01-24T14:21:48.100Z,59.20
2019-01-24T14:24:16.305Z,58.80
2019-01-24T14:26:44.499Z,58.84
2019-01-24T14:29:12.716Z,58.45
2019-01-24T14:31:40.910Z,58.38
2019-01-24T14:34:09.115Z,58.58
2019-01-24T14:36:37.318Z,58.40
2019-01-24T14:39:45.632Z,58.77
2019-01-24T14:42:13.829Z,59.08
2019-01-24T14:44:42.037Z,59.01
2019-01-24T14:47:10.223Z,58.68
2019-01-24T14:49:38.433Z,58.63
2019-01-24T14:52:06.640Z,58.86
2019-01-24T14:54:34.851Z,58.91
2019-01-24T14:57:03.045Z,58.80
2019-01-24T14:59:31.281Z,58.53
2019-01-24T15:01:59.477Z,58.80
2019-01-24T15:04:27.691Z,58.94
2019-01-24T15:06:55.883Z,58.77
2019-01-24T15:09:24.089Z,59.04
2019-01-24T15:11:52.281Z,59.14
2019-01-24T15:14:20.483Z,59.03
2019-01-24T15:16:48.685Z,58.91
2019-01-24T15:19:16.885Z,58.89
2019-01-24T15:21:45.085Z,57.98
2019-01-24T15:24:13.337Z,57.95
2019-01-24T15:26:41.532Z,58.29
2019-01-24T15:29:09.737Z,58.31
2019-01-24T15:31:37.941Z,58.51
2019-01-24T15:34:06.140Z,58.96
2019-01-24T15:36:34.352Z,58.87
2019-01-24T15:39:02.620Z,58.39
2019-01-24T15:41:30.854Z,58.22
2019-01-24T15:43:59.048Z,57.99
2019-01-24T15:46:27.267Z,58.13
2019-01-24T15:48:55.463Z,58.18
2019-01-24T15:51:23.672Z,58.03
2019-01-24T15:53:51.872Z,57.97
2019-01-24T15:56:20.084Z,58.22
2019-01-24T15:58:48.278Z,58.38
2019-01-24T16:01:16.491Z,58.03
2019-01-24T16:03:45.641Z,58.46
2019-01-24T16:06:14.613Z,58.36
2019-01-24T16:08:42.818Z,58.36
2019-01-24T16:11:11.025Z,58.46
2019-01-24T16:13:39.222Z,58.66
2019-01-24T16:16:07.431Z,58.63
2019-01-24T16:18:35.631Z,58.50
2019-01-24T16:21:03.842Z,58.64
2019-01-24T16:23:32.034Z,58.38
2019-01-24T16:26:00.241Z,58.60
2019-01-24T16:28:28.445Z,58.61
2019-01-24T16:30:56.774Z,58.40
2019-01-24T16:33:24.963Z,58.62
2019-01-24T16:35:53.175Z,58.50
2019-01-24T16:38:21.376Z,58.56
2019-01-24T16:40:49.781Z,58.75
2019-01-24T16:43:17.977Z,58.76
2019-01-24T16:45:46.164Z,58.93
2019-01-24T16:48:14.374Z,59.09
2019-01-24T16:50:42.568Z,58.66
2019-01-24T16:53:10.768Z,58.40
2019-01-24T16:55:38.962Z,58.37
2019-01-24T16:58:07.171Z,58.44
2019-01-24T17:00:54.860Z,58.32
2019-01-24T17:03:23.072Z,58.78
2019-01-24T17:05:51.323Z,58.60
2019-01-24T17:08:19.550Z,58.27
2019-01-24T17:10:47.761Z,58.64
2019-01-24T17:13:15.971Z,58.92
2019-01-24T17:15:44.167Z,59.03
2019-01-24T17:18:12.377Z,58.76
2019-01-24T17:20:40.574Z,58.70
2019-01-24T17:23:08.791Z,58.24
2019-01-24T17:25:36.987Z,59.02
2019-01-24T17:28:05.198Z,59.18
2019-01-24T17:30:34.941Z,59.12
2019-01-24T17:33:03.341Z,58.78
2019-01-24T17:35:31.537Z,58.66
2019-01-24T17:37:59.742Z,58.72
2019-01-24T17:43:28.533Z,58.86
2019-01-24T17:45:56.735Z,58.94
2019-01-24T17:48:24.952Z,59.07
2019-01-24T17:50:53.142Z,58.42
2019-01-24T17:53:21.415Z,58.61
2019-01-24T17:55:49.610Z,58.87
2019-01-24T17:58:17.816Z,58.80
2019-01-24T18:01:05.130Z,59.13
2019-01-24T18:03:33.345Z,58.83
2019-01-24T18:06:01.534Z,58.71
2019-01-24T18:08:31.416Z,58.86
2019-01-24T18:10:59.675Z,59.01
2019-01-24T18:13:27.883Z,59.04
2019-01-24T18:15:56.306Z,59.30
2019-01-24T18:18:24.736Z,59.24
2019-01-24T18:20:53.341Z,58.96
2019-01-24T18:23:21.613Z,59.12
2019-01-24T18:25:49.820Z,59.09
2019-01-24T18:28:18.017Z,58.65
2019-01-24T18:30:46.229Z,58.87
2019-01-24T18:33:14.435Z,59.06
2019-01-24T18:35:42.653Z,58.93
2019-01-24T18:38:10.843Z,58.89
2019-01-24T18:40:39.065Z,59.04
2019-01-24T18:46:21.249Z,59.42
2019-01-24T18:48:49.446Z,59.17
2019-01-24T18:51:17.651Z,65.99
2019-01-24T18:53:45.842Z,75.42
2019-01-24T18:56:14.048Z,78.31
2019-01-24T18:58:42.240Z,75.71
2019-01-24T19:01:10.439Z,79.74
2019-01-24T19:03:38.664Z,74.77
2019-01-24T19:06:06.891Z,67.13
2019-01-24T19:08:35.080Z,63.59
2019-01-24T19:11:03.284Z,62.28
2019-01-24T19:13:31.482Z,61.92
2019-01-24T19:15:59.684Z,61.74
2019-01-24T19:18:27.873Z,61.33
2019-01-24T19:20:56.082Z,60.73
2019-01-24T19:23:24.279Z,59.92
2019-01-24T19:25:52.488Z,59.15
2019-01-24T19:28:20.687Z,59.20
2019-01-24T19:30:48.898Z,59.58
2019-01-24T19:33:17.092Z,59.46
2019-01-24T19:35:45.307Z,59.67
2019-01-24T19:38:13.513Z,59.35
2019-01-24T19:40:41.719Z,59.74
2019-01-24T19:43:09.914Z,59.77
2019-01-24T19:45:38.149Z,59.69
2019-01-24T19:48:06.339Z,60.01
2019-01-24T19:50:34.542Z,59.81
2019-01-24T19:53:02.736Z,59.42
2019-01-24T19:55:30.950Z,60.00
2019-01-24T19:57:59.150Z,59.56
2019-01-24T20:01:07.471Z,59.58
2019-01-24T20:03:35.671Z,59.98
2019-01-24T20:06:03.885Z,59.57
2019-01-24T20:08:32.078Z,59.67
2019-01-24T20:11:00.300Z,59.70
2019-01-24T20:13:28.494Z,59.93
2019-01-24T20:15:56.703Z,60.26
2019-01-24T20:18:24.897Z,60.25
2019-01-24T20:20:53.112Z,59.87
2019-01-24T20:23:21.311Z,60.20
2019-01-24T20:25:49.517Z,59.81
2019-01-24T20:28:17.712Z,60.01
2019-01-24T20:30:45.925Z,59.67
2019-01-24T20:33:14.122Z,59.74
2019-01-24T20:36:22.447Z,59.94
2019-01-24T20:38:50.651Z,60.00
2019-01-24T20:41:18.863Z,59.99
2019-01-24T20:43:47.047Z,59.86
2019-01-24T20:46:15.253Z,59.99
2019-01-24T20:48:43.449Z,60.04
2019-01-24T20:51:11.685Z,60.01
2019-01-24T20:53:39.890Z,59.72
2019-01-24T20:56:08.107Z,59.82
2019-01-24T20:58:36.312Z,59.98
2019-01-24T21:01:44.630Z,59.79
2019-01-24T21:04:12.828Z,60.01
2019-01-24T21:06:41.041Z,59.55
2019-01-24T21:09:14.627Z,59.84
2019-01-24T21:11:39.161Z,60.01
2019-01-24T21:14:07.363Z,59.67
2019-01-24T21:16:35.573Z,59.46
2019-01-24T21:19:03.772Z,59.85
2019-01-24T21:21:31.978Z,59.39
2019-01-24T21:24:00.177Z,59.14
2019-01-24T21:26:28.429Z,59.38
2019-01-24T21:28:56.628Z,59.50
2019-01-24T21:31:24.825Z,59.58
2019-01-24T21:33:53.041Z,59.69
2019-01-24T21:36:21.227Z,59.66
2019-01-24T21:38:49.443Z,59.61
2019-01-24T21:41:17.638Z,59.43
2019-01-24T21:43:45.845Z,59.65
2019-01-24T21:46:14.044Z,59.72
2019-01-24T21:48:42.254Z,59.73
2019-01-24T21:51:11.267Z,59.58
2019-01-24T21:53:40.382Z,59.09
2019-01-24T21:56:08.581Z,59.32
2019-01-24T21:58:36.790Z,59.27
2019-01-24T22:01:04.990Z,59.31
2019-01-24T22:03:33.233Z,59.19
2019-01-24T22:06:01.394Z,58.88
2019-01-24T22:08:29.608Z,58.96
2019-01-24T22:10:57.798Z,59.18
2019-01-24T22:13:26.011Z,59.31
2019-01-24T22:15:54.209Z,59.20
2019-01-24T22:18:22.418Z,59.16
2019-01-24T22:20:55.635Z,58.83
2019-01-24T22:23:20.545Z,58.87
2019-01-24T22:25:48.739Z,59.06
2019-01-24T22:28:16.955Z,59.39
2019-01-24T22:33:34.034Z,59.34
2019-01-24T22:36:02.366Z,59.22
2019-01-24T22:38:30.568Z,59.23
2019-01-24T22:40:58.803Z,59.26
2019-01-24T22:43:27.009Z,59.08
2019-01-24T22:45:55.194Z,59.18
2019-01-24T22:48:23.407Z,59.24
2019-01-24T22:50:51.604Z,58.75
2019-01-24T22:53:19.806Z,59.03
2019-01-24T22:55:47.994Z,58.63
2019-01-24T22:58:16.208Z,58.91
2019-01-24T23:03:58.535Z,59.08
2019-01-24T23:06:26.735Z,58.87
2019-01-24T23:08:54.937Z,58.77
2019-01-24T23:11:23.663Z,58.96
2019-01-24T23:13:53.046Z,59.13
2019-01-24T23:16:21.242Z,59.08
2019-01-24T23:18:49.443Z,58.90
2019-01-24T23:21:17.631Z,58.99
2019-01-24T23:23:45.843Z,58.98
2019-01-24T23:26:14.040Z,58.83
2019-01-24T23:28:42.251Z,58.88
2019-01-24T23:31:10.440Z,58.86
2019-01-24T23:33:38.640Z,58.76
2019-01-24T23:36:06.832Z,58.92
2019-01-24T23:38:35.046Z,58.88
2019-01-24T23:41:03.237Z,58.89
2019-01-24T23:43:31.523Z,58.97
2019-01-24T23:45:59.715Z,59.01
2019-01-24T23:48:27.925Z,59.04
2019-01-24T23:50:56.132Z,58.99
2019-01-24T23:53:24.322Z,59.01
2019-01-24T23:55:52.540Z,59.03
2019-01-24T23:58:20.736Z,59.09
